Villa Grillasca, Puerto Rico
Current Conditions -  °F | °C
As of 7:50 PM on Friday 28 Nov 2014 (Local Time) from TJBQ Reporting Station
Broken Clouds Broken Clouds  
Wind Chill: 25°   Ceiling: 3100
Heat Index: 26°   Visibility: 10mi
Dew Point: 22°   Wind: 5mph
Humidity: 83%   Direction: 90°E
Pressure: 29.97"   Gusts: NA
Location:  18.0055°N, 66.6209°W
Report Text: TJBQ 282350Z 09004KT 10SM SCT023 BKN031 BKN050 25/22 A2997 RMK RWY08 ATIS C
Loading
Personal Weather Stations






























Interactive Weather Map New forecast layout! Learn more

10-Day Weather Forecast

Advertisements
Track Severe Weather on mobile